createdAt,value
2022-11-29T00:02:56.269Z,1.00
2022-11-29T00:06:07.858Z,0.99
2022-11-29T00:09:12.535Z,0.99
2022-11-29T00:12:14.150Z,0.95
2022-11-29T00:15:15.906Z,0.92
2022-11-29T00:18:17.447Z,0.87
2022-11-29T00:21:19.044Z,0.85
2022-11-29T00:24:20.925Z,0.83
2022-11-29T00:27:22.465Z,0.70
2022-11-29T00:30:24.179Z,0.78
2022-11-29T00:33:25.999Z,0.78
2022-11-29T00:36:28.565Z,0.79
2022-11-29T00:39:30.238Z,0.80
2022-11-29T00:42:31.812Z,0.75
2022-11-29T00:45:33.339Z,0.66
2022-11-29T00:48:35.506Z,0.67
2022-11-29T00:51:37.040Z,0.58
2022-11-29T00:54:38.593Z,0.49
2022-11-29T00:57:40.119Z,0.35
2022-11-29T01:00:41.662Z,0.33
2022-11-29T01:03:43.324Z,0.33
2022-11-29T01:06:44.846Z,0.34
2022-11-29T01:09:46.401Z,0.34
2022-11-29T01:12:48.072Z,0.37
2022-11-29T01:15:56.313Z,0.38
2022-11-29T01:18:57.887Z,0.40
2022-11-29T01:21:59.422Z,0.35
2022-11-29T01:25:01.002Z,0.27
2022-11-29T01:28:02.541Z,0.23
2022-11-29T01:31:12.363Z,0.17
2022-11-29T01:34:13.928Z,0.17
2022-11-29T01:37:15.465Z,0.10
2022-11-29T01:40:17.001Z,0.11
2022-11-29T01:43:18.646Z,0.12
2022-11-29T01:46:20.270Z,-0.08
2022-11-29T01:49:27.208Z,0.12
2022-11-29T01:52:32.244Z,0.06
2022-11-29T01:55:37.659Z,0.12
2022-11-29T01:58:39.373Z,0.13
2022-11-29T02:01:41.027Z,0.16
2022-11-29T02:04:43.957Z,0.16
2022-11-29T02:07:48.758Z,0.19
2022-11-29T02:11:09.706Z,0.20
2022-11-29T02:14:32.547Z,0.21
2022-11-29T02:17:43.043Z,0.21
2022-11-29T02:20:54.232Z,0.23
2022-11-29T02:24:05.002Z,0.28
2022-11-29T02:27:23.075Z,0.27
2022-11-29T02:30:55.850Z,0.28
2022-11-29T02:34:06.492Z,0.30
2022-11-29T02:37:38.836Z,0.33
2022-11-29T02:40:49.585Z,0.37
2022-11-29T02:44:25.109Z,0.41
2022-11-29T02:47:48.798Z,0.45
2022-11-29T02:50:57.703Z,0.45
2022-11-29T02:54:28.649Z,0.50
2022-11-29T02:57:32.770Z,0.50
2022-11-29T03:00:35.976Z,0.51
2022-11-29T03:03:43.719Z,0.48
2022-11-29T03:07:16.214Z,0.42
2022-11-29T03:10:26.164Z,0.40
2022-11-29T03:13:30.730Z,0.39
2022-11-29T03:16:57.206Z,0.36
2022-11-29T03:20:47.036Z,0.28
2022-11-29T03:23:52.827Z,0.29
2022-11-29T03:27:17.205Z,0.27
2022-11-29T03:30:19.316Z,0.20
2022-11-29T03:33:33.470Z,0.23
2022-11-29T03:36:45.609Z,0.22
2022-11-29T03:40:02.936Z,0.20
2022-11-29T03:43:12.767Z,0.21
2022-11-29T03:46:48.440Z,0.23
2022-11-29T03:49:55.850Z,0.24
2022-11-29T03:53:04.485Z,0.26
2022-11-29T03:56:29.289Z,0.29
2022-11-29T03:59:55.124Z,0.20
2022-11-29T04:03:28.175Z,0.17
2022-11-29T04:06:29.643Z,0.15
2022-11-29T04:09:59.414Z,0.18
2022-11-29T04:13:08.410Z,0.16
2022-11-29T04:16:09.932Z,0.11
2022-11-29T04:19:49.127Z,0.13
2022-11-29T04:23:08.902Z,0.05
2022-11-29T04:26:47.107Z,0.04
2022-11-29T04:30:01.734Z,0.04
2022-11-29T04:33:27.765Z,0.00
2022-11-29T04:36:42.426Z,0.01
2022-11-29T04:40:05.685Z,0.00
2022-11-29T04:43:22.396Z,0.07
2022-11-29T04:46:23.903Z,0.11
2022-11-29T04:50:04.088Z,0.15
2022-11-29T04:53:11.773Z,0.13
2022-11-29T04:56:47.458Z,0.12
2022-11-29T05:00:01.927Z,0.13
2022-11-29T05:03:33.046Z,0.19
2022-11-29T05:06:43.166Z,0.19
2022-11-29T05:10:06.297Z,0.14
2022-11-29T05:13:46.817Z,0.15
2022-11-29T05:16:54.830Z,0.13
2022-11-29T05:20:27.530Z,0.12
2022-11-29T05:24:07.555Z,0.16
2022-11-29T05:27:42.978Z,0.21
2022-11-29T05:30:50.637Z,0.11
2022-11-29T05:34:06.059Z,0.07
2022-11-29T05:37:22.107Z,0.12
2022-11-29T05:40:51.214Z,0.10
2022-11-29T05:43:59.531Z,0.13
2022-11-29T05:47:03.345Z,0.14
2022-11-29T05:50:10.954Z,0.15
2022-11-29T05:53:44.270Z,0.17
2022-11-29T05:57:14.662Z,0.15
2022-11-29T06:00:17.575Z,0.09
2022-11-29T06:03:33.670Z,0.10
2022-11-29T06:07:15.060Z,0.08
2022-11-29T06:10:18.316Z,0.05
2022-11-29T06:13:44.858Z,0.10
2022-11-29T06:17:18.719Z,0.11
2022-11-29T06:20:41.352Z,0.12
2022-11-29T06:24:01.247Z,0.13
2022-11-29T06:27:36.435Z,0.17
2022-11-29T06:31:03.483Z,0.22
2022-11-29T06:34:14.074Z,0.20
2022-11-29T06:37:21.638Z,0.22
2022-11-29T06:40:23.474Z,0.24
2022-11-29T06:43:28.356Z,0.29
2022-11-29T06:46:53.216Z,0.39
2022-11-29T06:50:01.318Z,0.42
2022-11-29T06:53:34.892Z,0.51
2022-11-29T06:56:42.848Z,0.53
2022-11-29T07:00:03.805Z,0.53
2022-11-29T07:03:26.538Z,0.53
2022-11-29T07:06:29.205Z,0.53
2022-11-29T07:09:34.274Z,0.54
2022-11-29T07:12:36.102Z,0.53
2022-11-29T07:15:38.226Z,0.48
2022-11-29T07:19:21.979Z,0.58
2022-11-29T07:22:26.640Z,0.57
2022-11-29T07:25:56.869Z,0.59
2022-11-29T07:29:28.329Z,0.69
2022-11-29T07:32:40.089Z,0.66
2022-11-29T07:36:09.857Z,0.80
2022-11-29T07:39:20.438Z,0.92
2022-11-29T07:42:54.058Z,1.02
2022-11-29T07:45:57.054Z,1.15
2022-11-29T07:48:58.568Z,0.95
2022-11-29T07:52:00.129Z,1.02
2022-11-29T07:55:02.367Z,1.06
2022-11-29T07:58:03.894Z,0.88
2022-11-29T08:01:05.529Z,1.04
2022-11-29T08:04:08.284Z,1.19
2022-11-29T08:07:10.104Z,1.10
2022-11-29T08:10:14.721Z,0.93
2022-11-29T08:13:19.307Z,1.09
2022-11-29T08:16:20.868Z,1.11
2022-11-29T08:19:22.438Z,1.16
2022-11-29T08:22:23.960Z,1.21
2022-11-29T08:25:26.921Z,1.39
2022-11-29T08:28:28.775Z,1.51
2022-11-29T08:31:30.360Z,1.41
2022-11-29T08:34:31.924Z,1.55
2022-11-29T08:37:33.436Z,1.42
2022-11-29T08:40:34.967Z,1.39
2022-11-29T08:43:36.510Z,1.48
2022-11-29T08:46:56.333Z,1.42
2022-11-29T08:50:03.642Z,1.49
2022-11-29T08:53:23.710Z,1.36
2022-11-29T08:57:16.426Z,1.29
2022-11-29T08:59:46.750Z,1.27
2022-11-29T09:02:48.836Z,1.31
2022-11-29T09:05:50.536Z,1.41
2022-11-29T09:08:52.100Z,1.52
2022-11-29T09:11:53.642Z,1.51
2022-11-29T09:14:55.167Z,1.54
2022-11-29T09:17:57.086Z,1.64
2022-11-29T09:20:59.377Z,1.73
2022-11-29T09:24:02.024Z,1.73
2022-11-29T09:27:03.843Z,2.04
2022-11-29T09:30:05.992Z,1.98
2022-11-29T09:33:07.540Z,2.34
2022-11-29T09:36:10.692Z,2.45
2022-11-29T09:39:14.979Z,2.45
2022-11-29T09:42:47.776Z,2.45
2022-11-29T09:45:54.992Z,2.68
2022-11-29T09:49:26.417Z,2.65
2022-11-29T09:53:05.824Z,2.45
2022-11-29T09:56:44.057Z,2.61
2022-11-29T09:59:48.295Z,2.54
2022-11-29T10:03:03.767Z,2.99
2022-11-29T10:06:24.273Z,2.93
2022-11-29T10:09:33.708Z,3.29
2022-11-29T10:12:49.986Z,3.32
2022-11-29T10:15:58.548Z,3.62
2022-11-29T10:19:17.406Z,3.49
2022-11-29T10:22:28.030Z,3.68
2022-11-29T10:25:38.024Z,3.51
2022-11-29T10:28:44.986Z,3.58
2022-11-29T10:31:49.417Z,3.56
2022-11-29T10:34:51.470Z,3.67
2022-11-29T10:38:29.241Z,3.85
2022-11-29T10:41:21.578Z,3.85
2022-11-29T10:44:24.471Z,3.61
2022-11-29T10:47:26.271Z,3.58
2022-11-29T10:50:29.800Z,3.63
2022-11-29T10:53:36.016Z,3.76
2022-11-29T10:56:39.392Z,3.86
2022-11-29T10:59:41.038Z,3.79
2022-11-29T11:02:42.578Z,3.99
2022-11-29T11:05:59.583Z,3.94
2022-11-29T11:09:20.373Z,4.07
2022-11-29T11:12:30.269Z,3.80
2022-11-29T11:15:32.523Z,3.78
2022-11-29T11:18:34.293Z,3.73
2022-11-29T11:21:38.380Z,3.82
2022-11-29T11:24:41.548Z,3.68
2022-11-29T11:27:43.151Z,3.81
2022-11-29T11:30:50.945Z,3.64
2022-11-29T11:33:52.706Z,3.66
2022-11-29T11:37:11.462Z,3.65
2022-11-29T11:40:28.959Z,3.72
2022-11-29T11:43:31.822Z,3.64
2022-11-29T11:46:53.677Z,3.79
2022-11-29T11:50:04.081Z,3.80
2022-11-29T11:53:08.348Z,3.72
2022-11-29T11:56:12.843Z,3.80
2022-11-29T11:59:20.157Z,3.72
2022-11-29T12:02:26.652Z,3.71
2022-11-29T12:05:28.325Z,3.78
2022-11-29T12:08:30.687Z,3.90
2022-11-29T12:11:39.690Z,3.79
2022-11-29T12:14:59.639Z,3.70
2022-11-29T12:18:12.895Z,3.62
2022-11-29T12:21:22.705Z,3.54
2022-11-29T12:24:38.355Z,3.53
2022-11-29T12:27:39.891Z,3.58
2022-11-29T12:31:07.690Z,3.40
2022-11-29T12:35:03.639Z,3.51
2022-11-29T12:38:07.900Z,3.56
2022-11-29T12:41:52.480Z,3.59
2022-11-29T12:45:20.245Z,3.66
2022-11-29T12:49:06.473Z,3.77
2022-11-29T12:52:24.455Z,3.82
2022-11-29T12:55:37.547Z,3.81
2022-11-29T12:58:44.229Z,3.84
2022-11-29T13:02:22.007Z,3.95
2022-11-29T13:05:42.430Z,4.11
2022-11-29T13:09:02.681Z,4.09
2022-11-29T13:12:13.442Z,4.11
2022-11-29T13:15:17.158Z,4.26
2022-11-29T13:18:26.166Z,4.13
2022-11-29T13:22:09.195Z,4.21
2022-11-29T13:25:20.242Z,4.31
2022-11-29T13:28:28.639Z,4.28
2022-11-29T13:31:30.830Z,4.09
2022-11-29T13:34:39.583Z,4.14
2022-11-29T13:37:49.407Z,4.06
2022-11-29T13:40:59.592Z,3.86
2022-11-29T13:44:43.465Z,4.01
2022-11-29T13:47:52.611Z,4.04
2022-11-29T13:50:55.383Z,3.85
2022-11-29T13:54:00.212Z,3.69
2022-11-29T13:57:03.248Z,3.61
2022-11-29T14:00:05.829Z,3.59
2022-11-29T14:03:28.563Z,3.61
2022-11-29T14:06:35.626Z,3.66
2022-11-29T14:10:04.176Z,3.61
2022-11-29T14:13:12.083Z,3.60
2022-11-29T14:16:21.374Z,3.60
2022-11-29T14:19:22.966Z,3.60
2022-11-29T14:22:24.507Z,3.56
2022-11-29T14:25:50.709Z,3.47
2022-11-29T14:28:47.759Z,3.42
2022-11-29T14:31:50.897Z,3.30
2022-11-29T14:35:10.813Z,3.22
2022-11-29T14:38:29.270Z,3.16
2022-11-29T14:41:47.452Z,3.09
2022-11-29T14:44:54.130Z,3.03
2022-11-29T14:47:56.333Z,2.94
2022-11-29T14:51:09.828Z,2.84
2022-11-29T14:54:12.220Z,2.81
2022-11-29T14:57:44.839Z,2.74
2022-11-29T15:00:49.396Z,2.68
2022-11-29T15:03:51.216Z,2.63
2022-11-29T15:06:55.830Z,2.58
2022-11-29T15:10:04.344Z,2.48
2022-11-29T15:13:08.671Z,2.48
2022-11-29T15:16:28.551Z,2.46
2022-11-29T15:19:57.994Z,2.44
2022-11-29T15:23:01.907Z,2.41
2022-11-29T15:26:03.610Z,2.35
2022-11-29T15:29:19.780Z,2.15
2022-11-29T15:32:32.605Z,2.38
2022-11-29T15:35:35.982Z,2.37
2022-11-29T15:38:52.867Z,2.33
2022-11-29T15:42:00.501Z,2.28
2022-11-29T15:45:02.044Z,2.26
2022-11-29T15:48:30.660Z,2.28
2022-11-29T15:51:35.513Z,2.26
2022-11-29T15:54:44.068Z,2.27
2022-11-29T15:57:48.703Z,2.21
2022-11-29T16:00:50.849Z,2.18
2022-11-29T16:03:54.583Z,2.20
2022-11-29T16:06:56.855Z,2.24
2022-11-29T16:10:05.239Z,2.25
2022-11-29T16:13:26.196Z,2.28
2022-11-29T16:16:28.809Z,2.29
2022-11-29T16:19:37.987Z,2.10
2022-11-29T16:22:39.668Z,2.36
2022-11-29T16:26:16.568Z,2.37
2022-11-29T16:29:30.777Z,2.38
2022-11-29T16:32:37.563Z,2.36
2022-11-29T16:35:39.115Z,2.42
2022-11-29T16:38:49.571Z,2.44
2022-11-29T16:42:08.373Z,2.44
2022-11-29T16:45:38.419Z,2.40
2022-11-29T16:48:43.479Z,2.29
2022-11-29T16:51:48.205Z,2.17
2022-11-29T16:54:51.431Z,2.23
2022-11-29T16:57:52.950Z,2.30
2022-11-29T17:00:54.541Z,2.35
2022-11-29T17:03:57.844Z,2.41
2022-11-29T17:06:59.537Z,2.46
2022-11-29T17:10:01.161Z,2.51
2022-11-29T17:13:04.439Z,2.53
2022-11-29T17:16:12.680Z,2.56
2022-11-29T17:19:14.265Z,2.59
2022-11-29T17:22:15.778Z,2.60
2022-11-29T17:25:17.307Z,2.62
2022-11-29T17:28:18.874Z,2.65
2022-11-29T17:31:22.737Z,2.66
2022-11-29T17:34:24.418Z,2.67
2022-11-29T17:37:25.961Z,2.66
2022-11-29T17:40:27.503Z,2.67
2022-11-29T17:43:29.027Z,2.68
2022-11-29T17:46:32.751Z,2.68
2022-11-29T17:49:34.305Z,2.68
2022-11-29T17:52:35.859Z,2.67
2022-11-29T17:55:37.371Z,2.70
2022-11-29T17:58:39.663Z,2.69
2022-11-29T18:01:41.248Z,2.71
2022-11-29T18:04:43.937Z,2.74
2022-11-29T18:08:00.795Z,2.73
2022-11-29T18:11:23.540Z,2.75
2022-11-29T18:14:28.297Z,2.76
2022-11-29T18:17:29.978Z,2.75
2022-11-29T18:20:31.494Z,2.73
2022-11-29T18:23:34.386Z,2.73
2022-11-29T18:26:37.544Z,2.71
2022-11-29T18:29:39.472Z,2.74
2022-11-29T18:32:41.135Z,2.74
2022-11-29T18:35:42.683Z,2.71
2022-11-29T18:38:45.308Z,2.72
2022-11-29T18:41:48.171Z,2.71
2022-11-29T18:44:50.984Z,2.69
2022-11-29T18:47:54.143Z,2.69
2022-11-29T18:50:55.713Z,2.76
2022-11-29T18:53:58.238Z,2.70
2022-11-29T18:56:59.839Z,2.64
2022-11-29T19:00:03.851Z,2.60
2022-11-29T19:03:05.371Z,2.53
2022-11-29T19:06:09.753Z,2.43
2022-11-29T19:09:20.921Z,2.39
2022-11-29T19:12:22.600Z,2.37
2022-11-29T19:15:24.124Z,2.20
2022-11-29T19:18:25.669Z,2.36
2022-11-29T19:21:29.528Z,2.36
2022-11-29T19:24:31.115Z,2.23
2022-11-29T19:27:32.659Z,2.36
2022-11-29T19:30:34.580Z,2.33
2022-11-29T19:33:37.659Z,2.35
2022-11-29T19:36:43.957Z,2.35
2022-11-29T19:39:46.345Z,2.39
2022-11-29T19:42:51.179Z,2.39
2022-11-29T19:45:52.799Z,2.35
2022-11-29T19:48:55.951Z,2.35
2022-11-29T19:51:57.481Z,2.09
2022-11-29T19:54:59.704Z,2.27
2022-11-29T19:58:01.230Z,2.26
2022-11-29T20:01:25.037Z,2.26
2022-11-29T20:04:26.691Z,2.21
2022-11-29T20:07:28.312Z,2.19
2022-11-29T20:10:29.867Z,2.12
2022-11-29T20:13:31.456Z,2.07
2022-11-29T20:16:33.518Z,2.01
2022-11-29T20:19:35.055Z,1.94
2022-11-29T20:22:37.187Z,1.90
2022-11-29T20:25:38.752Z,1.89
2022-11-29T20:28:40.518Z,1.83
2022-11-29T20:31:49.651Z,1.80
2022-11-29T20:34:52.382Z,1.80
2022-11-29T20:38:06.824Z,1.80
2022-11-29T20:41:14.131Z,1.82
2022-11-29T20:44:30.174Z,1.85
2022-11-29T20:47:36.345Z,1.61
2022-11-29T20:50:38.215Z,1.89
2022-11-29T20:53:41.657Z,1.88
2022-11-29T20:56:43.174Z,1.89
2022-11-29T20:59:45.004Z,1.87
2022-11-29T21:02:46.700Z,1.89
2022-11-29T21:05:48.446Z,1.88
2022-11-29T21:08:51.142Z,1.87
2022-11-29T21:11:52.940Z,1.86
2022-11-29T21:14:54.762Z,1.87
2022-11-29T21:17:56.631Z,1.85
2022-11-29T21:21:04.059Z,1.84
2022-11-29T21:24:21.019Z,1.86
2022-11-29T21:27:28.303Z,1.87
2022-11-29T21:30:29.982Z,1.88
2022-11-29T21:33:31.765Z,1.89
2022-11-29T21:36:33.307Z,1.91
2022-11-29T21:39:35.120Z,1.92
2022-11-29T21:42:37.093Z,1.94
2022-11-29T21:45:38.621Z,1.94
2022-11-29T21:48:42.274Z,1.94
2022-11-29T21:51:43.831Z,1.96
2022-11-29T21:54:45.535Z,1.86
2022-11-29T21:57:47.209Z,1.98
2022-11-29T22:00:48.752Z,1.98
2022-11-29T22:03:53.413Z,1.98
2022-11-29T22:06:54.929Z,1.97
2022-11-29T22:09:56.446Z,1.98
2022-11-29T22:12:58.988Z,1.97
2022-11-29T22:16:08.658Z,1.96
2022-11-29T22:19:14.417Z,1.92
2022-11-29T22:22:16.091Z,1.90
2022-11-29T22:25:17.698Z,1.90
2022-11-29T22:28:19.268Z,1.89
2022-11-29T22:31:20.863Z,1.91
2022-11-29T22:34:25.106Z,1.92
2022-11-29T22:37:27.538Z,1.93
2022-11-29T22:40:29.067Z,1.94
2022-11-29T22:43:31.406Z,1.97
2022-11-29T22:46:35.353Z,1.89
2022-11-29T22:49:36.992Z,2.05
2022-11-29T22:52:38.517Z,2.05
2022-11-29T22:55:40.043Z,2.09
2022-11-29T22:58:41.578Z,2.10
2022-11-29T23:01:43.523Z,2.10
2022-11-29T23:04:45.416Z,2.11
2022-11-29T23:07:47.363Z,2.12
2022-11-29T23:10:56.982Z,2.10
2022-11-29T23:13:58.541Z,2.09
2022-11-29T23:17:00.070Z,2.06
2022-11-29T23:20:01.570Z,2.04
2022-11-29T23:23:03.103Z,2.04
2022-11-29T23:26:06.049Z,2.04
2022-11-29T23:29:10.067Z,2.04
2022-11-29T23:32:11.627Z,2.04
2022-11-29T23:35:13.267Z,2.07
2022-11-29T23:38:15.262Z,2.06
2022-11-29T23:41:16.824Z,2.09
2022-11-29T23:44:18.335Z,2.09
2022-11-29T23:47:19.850Z,2.10
2022-11-29T23:50:21.386Z,2.12
2022-11-29T23:53:22.942Z,2.11
2022-11-29T23:56:24.502Z,2.02
2022-11-29T23:59:26.034Z,2.11
